sensor_id;sensor_type;location;lat;lon;timestamp;temperature;humidity
8340;DHT22;4207;49.314;7.162;2022-11-20T00:01:05;7.00;99.90
8340;DHT22;4207;49.314;7.162;2022-11-20T00:03:33;7.00;99.90
8340;DHT22;4207;49.314;7.162;2022-11-20T00:06:01;7.00;99.90
8340;DHT22;4207;49.314;7.162;2022-11-20T00:08:29;7.00;99.90
8340;DHT22;4207;49.314;7.162;2022-11-20T00:11:02;7.00;99.90
8340;DHT22;4207;49.314;7.162;2022-11-20T00:13:31;7.00;99.90
8340;DHT22;4207;49.314;7.162;2022-11-20T00:15:59;7.00;99.90
8340;DHT22;4207;49.314;7.162;2022-11-20T00:18:28;7.00;99.90
8340;DHT22;4207;49.314;7.162;2022-11-20T00:21:01;7.00;99.90
8340;DHT22;4207;49.314;7.162;2022-11-20T00:23:29;7.00;99.90
8340;DHT22;4207;49.314;7.162;2022-11-20T00:26:02;7.00;99.90
8340;DHT22;4207;49.314;7.162;2022-11-20T00:28:31;7.00;99.90
8340;DHT22;4207;49.314;7.162;2022-11-20T00:31:03;7.00;99.90
8340;DHT22;4207;49.314;7.162;2022-11-20T00:33:33;7.00;99.90
8340;DHT22;4207;49.314;7.162;2022-11-20T00:36:02;7.00;99.90
8340;DHT22;4207;49.314;7.162;2022-11-20T00:38:30;7.00;99.90
8340;DHT22;4207;49.314;7.162;2022-11-20T00:40:59;7.00;99.90
8340;DHT22;4207;49.314;7.162;2022-11-20T00:43:29;7.00;99.90
8340;DHT22;4207;49.314;7.162;2022-11-20T00:45:57;7.00;99.90
8340;DHT22;4207;49.314;7.162;2022-11-20T00:48:26;7.00;99.90
8340;DHT22;4207;49.314;7.162;2022-11-20T00:50:54;7.00;99.90
8340;DHT22;4207;49.314;7.162;2022-11-20T00:53:22;7.00;99.90
8340;DHT22;4207;49.314;7.162;2022-11-20T00:55:54;7.00;99.90
8340;DHT22;4207;49.314;7.162;2022-11-20T00:58:23;7.00;99.90
8340;DHT22;4207;49.314;7.162;2022-11-20T01:00:53;7.00;99.90
8340;DHT22;4207;49.314;7.162;2022-11-20T01:03:21;7.00;99.90
8340;DHT22;4207;49.314;7.162;2022-11-20T01:05:53;7.00;99.90
8340;DHT22;4207;49.314;7.162;2022-11-20T01:08:21;7.00;99.90
8340;DHT22;4207;49.314;7.162;2022-11-20T01:10:48;7.00;99.90
8340;DHT22;4207;49.314;7.162;2022-11-20T01:13:16;7.00;99.90
8340;DHT22;4207;49.314;7.162;2022-11-20T01:16:04;7.00;99.90
8340;DHT22;4207;49.314;7.162;2022-11-20T01:18:33;7.00;99.90
8340;DHT22;4207;49.314;7.162;2022-11-20T01:21:03;7.00;99.90
8340;DHT22;4207;49.314;7.162;2022-11-20T01:23:32;7.00;99.90
8340;DHT22;4207;49.314;7.162;2022-11-20T01:26:02;7.00;99.90
8340;DHT22;4207;49.314;7.162;2022-11-20T01:28:32;7.00;99.90
8340;DHT22;4207;49.314;7.162;2022-11-20T01:31:01;7.00;99.90
8340;DHT22;4207;49.314;7.162;2022-11-20T01:33:31;7.00;99.90
8340;DHT22;4207;49.314;7.162;2022-11-20T01:36:04;7.10;99.90
8340;DHT22;4207;49.314;7.162;2022-11-20T01:38:33;7.00;99.90
8340;DHT22;4207;49.314;7.162;2022-11-20T01:41:01;7.00;99.90
8340;DHT22;4207;49.314;7.162;2022-11-20T01:43:29;7.00;99.90
8340;DHT22;4207;49.314;7.162;2022-11-20T01:46:14;7.00;99.90
8340;DHT22;4207;49.314;7.162;2022-11-20T01:48:47;7.00;99.90
8340;DHT22;4207;49.314;7.162;2022-11-20T01:51:23;7.00;99.90
8340;DHT22;4207;49.314;7.162;2022-11-20T01:53:54;7.00;99.90
8340;DHT22;4207;49.314;7.162;2022-11-20T01:56:23;7.00;99.90
8340;DHT22;4207;49.314;7.162;2022-11-20T01:58:56;7.00;99.90
8340;DHT22;4207;49.314;7.162;2022-11-20T02:01:24;7.00;99.90
8340;DHT22;4207;49.314;7.162;2022-11-20T02:03:54;7.00;99.90
8340;DHT22;4207;49.314;7.162;2022-11-20T02:06:25;7.00;99.90
8340;DHT22;4207;49.314;7.162;2022-11-20T02:08:54;7.00;99.90
8340;DHT22;4207;49.314;7.162;2022-11-20T02:11:22;7.00;99.90
8340;DHT22;4207;49.314;7.162;2022-11-20T02:13:50;7.00;99.90
8340;DHT22;4207;49.314;7.162;2022-11-20T02:16:21;7.00;99.90
8340;DHT22;4207;49.314;7.162;2022-11-20T02:18:51;7.00;99.90
8340;DHT22;4207;49.314;7.162;2022-11-20T02:21:27;7.00;99.90
8340;DHT22;4207;49.314;7.162;2022-11-20T02:24:03;7.00;99.90
8340;DHT22;4207;49.314;7.162;2022-11-20T02:26:34;7.00;99.90
8340;DHT22;4207;49.314;7.162;2022-11-20T02:29:04;7.00;99.90
8340;DHT22;4207;49.314;7.162;2022-11-20T02:31:38;7.00;99.90
8340;DHT22;4207;49.314;7.162;2022-11-20T02:34:08;7.00;99.90
8340;DHT22;4207;49.314;7.162;2022-11-20T02:36:37;7.00;99.90
8340;DHT22;4207;49.314;7.162;2022-11-20T02:39:09;7.00;99.90
8340;DHT22;4207;49.314;7.162;2022-11-20T02:41:39;7.10;99.90
8340;DHT22;4207;49.314;7.162;2022-11-20T02:44:07;7.00;99.90
8340;DHT22;4207;49.314;7.162;2022-11-20T02:46:35;7.00;99.90
8340;DHT22;4207;49.314;7.162;2022-11-20T02:49:04;7.00;99.90
8340;DHT22;4207;49.314;7.162;2022-11-20T02:51:32;7.00;99.90
8340;DHT22;4207;49.314;7.162;2022-11-20T02:54:00;7.00;99.90
8340;DHT22;4207;49.314;7.162;2022-11-20T02:56:30;7.00;99.90
8340;DHT22;4207;49.314;7.162;2022-11-20T02:58:58;7.00;99.90
8340;DHT22;4207;49.314;7.162;2022-11-20T03:01:27;7.00;99.90
8340;DHT22;4207;49.314;7.162;2022-11-20T03:03:55;7.00;99.90
8340;DHT22;4207;49.314;7.162;2022-11-20T03:06:23;7.00;99.90
8340;DHT22;4207;49.314;7.162;2022-11-20T03:08:51;7.00;99.90
8340;DHT22;4207;49.314;7.162;2022-11-20T03:11:19;7.00;99.90
8340;DHT22;4207;49.314;7.162;2022-11-20T03:13:49;6.90;99.90
8340;DHT22;4207;49.314;7.162;2022-11-20T03:16:19;6.90;99.90
8340;DHT22;4207;49.314;7.162;2022-11-20T03:18:47;6.90;99.90
8340;DHT22;4207;49.314;7.162;2022-11-20T03:21:16;7.00;99.90
8340;DHT22;4207;49.314;7.162;2022-11-20T03:23:44;7.00;99.90
8340;DHT22;4207;49.314;7.162;2022-11-20T03:26:14;7.00;99.90
8340;DHT22;4207;49.314;7.162;2022-11-20T03:28:46;7.00;99.90
8340;DHT22;4207;49.314;7.162;2022-11-20T03:31:19;7.00;99.90
8340;DHT22;4207;49.314;7.162;2022-11-20T03:33:48;7.00;99.90
8340;DHT22;4207;49.314;7.162;2022-11-20T03:36:18;7.00;99.90
8340;DHT22;4207;49.314;7.162;2022-11-20T03:38:47;7.10;99.90
8340;DHT22;4207;49.314;7.162;2022-11-20T03:41:16;7.00;99.90
8340;DHT22;4207;49.314;7.162;2022-11-20T03:43:48;7.00;99.90
8340;DHT22;4207;49.314;7.162;2022-11-20T03:46:17;7.00;99.90
8340;DHT22;4207;49.314;7.162;2022-11-20T03:48:46;7.00;99.90
8340;DHT22;4207;49.314;7.162;2022-11-20T03:51:18;7.00;99.90
8340;DHT22;4207;49.314;7.162;2022-11-20T03:53:48;7.00;99.90
8340;DHT22;4207;49.314;7.162;2022-11-20T03:56:18;7.00;99.90
8340;DHT22;4207;49.314;7.162;2022-11-20T03:58:46;7.00;99.90
8340;DHT22;4207;49.314;7.162;2022-11-20T04:01:15;7.00;99.90
8340;DHT22;4207;49.314;7.162;2022-11-20T04:03:45;7.00;99.90
8340;DHT22;4207;49.314;7.162;2022-11-20T04:06:15;7.00;99.90
8340;DHT22;4207;49.314;7.162;2022-11-20T04:08:43;7.00;99.90
8340;DHT22;4207;49.314;7.162;2022-11-20T04:11:20;6.90;99.90
8340;DHT22;4207;49.314;7.162;2022-11-20T04:13:50;6.80;99.90
8340;DHT22;4207;49.314;7.162;2022-11-20T04:16:19;6.80;99.90
8340;DHT22;4207;49.314;7.162;2022-11-20T04:18:51;6.80;99.90
8340;DHT22;4207;49.314;7.162;2022-11-20T04:21:20;6.80;99.90
8340;DHT22;4207;49.314;7.162;2022-11-20T04:23:49;6.70;99.90
8340;DHT22;4207;49.314;7.162;2022-11-20T04:26:17;6.80;99.90
8340;DHT22;4207;49.314;7.162;2022-11-20T04:28:45;6.80;99.90
8340;DHT22;4207;49.314;7.162;2022-11-20T04:31:14;6.70;99.90
8340;DHT22;4207;49.314;7.162;2022-11-20T04:33:42;6.80;99.90
8340;DHT22;4207;49.314;7.162;2022-11-20T04:36:13;6.70;99.90
8340;DHT22;4207;49.314;7.162;2022-11-20T04:38:41;6.70;99.90
8340;DHT22;4207;49.314;7.162;2022-11-20T04:41:14;6.70;99.90
8340;DHT22;4207;49.314;7.162;2022-11-20T04:43:46;6.70;99.90
8340;DHT22;4207;49.314;7.162;2022-11-20T04:46:15;6.70;99.90
8340;DHT22;4207;49.314;7.162;2022-11-20T04:48:43;6.70;99.90
8340;DHT22;4207;49.314;7.162;2022-11-20T04:51:13;6.70;99.90
8340;DHT22;4207;49.314;7.162;2022-11-20T04:53:41;6.70;99.90
8340;DHT22;4207;49.314;7.162;2022-11-20T04:56:11;6.70;99.90
8340;DHT22;4207;49.314;7.162;2022-11-20T04:58:39;6.80;99.90
8340;DHT22;4207;49.314;7.162;2022-11-20T05:01:11;6.80;99.90
8340;DHT22;4207;49.314;7.162;2022-11-20T05:03:39;6.80;99.90
8340;DHT22;4207;49.314;7.162;2022-11-20T05:06:09;6.80;99.90
8340;DHT22;4207;49.314;7.162;2022-11-20T05:08:40;6.80;99.90
8340;DHT22;4207;49.314;7.162;2022-11-20T05:11:09;6.80;99.90
8340;DHT22;4207;49.314;7.162;2022-11-20T05:13:38;6.80;99.90
8340;DHT22;4207;49.314;7.162;2022-11-20T05:16:07;6.80;99.90
8340;DHT22;4207;49.314;7.162;2022-11-20T05:18:36;6.80;99.90
8340;DHT22;4207;49.314;7.162;2022-11-20T05:21:05;6.80;99.90
8340;DHT22;4207;49.314;7.162;2022-11-20T05:23:34;6.80;99.90
8340;DHT22;4207;49.314;7.162;2022-11-20T05:26:03;6.80;99.90
8340;DHT22;4207;49.314;7.162;2022-11-20T05:28:34;6.90;99.90
8340;DHT22;4207;49.314;7.162;2022-11-20T05:31:06;6.90;99.90
8340;DHT22;4207;49.314;7.162;2022-11-20T05:33:34;6.90;99.90
8340;DHT22;4207;49.314;7.162;2022-11-20T05:36:03;6.90;99.90
8340;DHT22;4207;49.314;7.162;2022-11-20T05:38:31;6.90;99.90
8340;DHT22;4207;49.314;7.162;2022-11-20T05:41:08;6.90;99.90
8340;DHT22;4207;49.314;7.162;2022-11-20T05:43:38;6.90;99.90
8340;DHT22;4207;49.314;7.162;2022-11-20T05:46:07;6.90;99.90
8340;DHT22;4207;49.314;7.162;2022-11-20T05:48:37;6.90;99.90
8340;DHT22;4207;49.314;7.162;2022-11-20T05:51:07;6.90;99.90
8340;DHT22;4207;49.314;7.162;2022-11-20T05:53:36;6.80;99.90
8340;DHT22;4207;49.314;7.162;2022-11-20T05:56:10;6.90;99.90
8340;DHT22;4207;49.314;7.162;2022-11-20T05:58:39;6.90;99.90
8340;DHT22;4207;49.314;7.162;2022-11-20T06:01:10;6.90;99.90
8340;DHT22;4207;49.314;7.162;2022-11-20T06:03:39;6.90;99.90
8340;DHT22;4207;49.314;7.162;2022-11-20T06:06:09;6.90;99.90
8340;DHT22;4207;49.314;7.162;2022-11-20T06:08:37;6.80;99.90
8340;DHT22;4207;49.314;7.162;2022-11-20T06:11:06;6.90;99.90
8340;DHT22;4207;49.314;7.162;2022-11-20T06:13:36;6.90;99.90
8340;DHT22;4207;49.314;7.162;2022-11-20T06:16:09;6.90;99.90
8340;DHT22;4207;49.314;7.162;2022-11-20T06:18:37;6.90;99.90
8340;DHT22;4207;49.314;7.162;2022-11-20T06:21:07;6.90;99.90
8340;DHT22;4207;49.314;7.162;2022-11-20T06:23:36;6.90;99.90
8340;DHT22;4207;49.314;7.162;2022-11-20T06:26:06;6.90;99.90
8340;DHT22;4207;49.314;7.162;2022-11-20T06:28:36;6.90;99.90
8340;DHT22;4207;49.314;7.162;2022-11-20T06:31:04;6.90;99.90
8340;DHT22;4207;49.314;7.162;2022-11-20T06:33:33;7.00;99.90
8340;DHT22;4207;49.314;7.162;2022-11-20T06:36:01;6.90;99.90
8340;DHT22;4207;49.314;7.162;2022-11-20T06:38:36;6.90;99.90
8340;DHT22;4207;49.314;7.162;2022-11-20T06:41:05;7.00;99.90
8340;DHT22;4207;49.314;7.162;2022-11-20T06:43:34;7.00;99.90
8340;DHT22;4207;49.314;7.162;2022-11-20T06:46:02;6.90;99.90
8340;DHT22;4207;49.314;7.162;2022-11-20T06:48:31;7.00;99.90
8340;DHT22;4207;49.314;7.162;2022-11-20T06:50:59;7.00;99.90
8340;DHT22;4207;49.314;7.162;2022-11-20T06:53:27;7.00;99.90
8340;DHT22;4207;49.314;7.162;2022-11-20T06:55:56;7.00;99.90
8340;DHT22;4207;49.314;7.162;2022-11-20T06:58:27;7.00;99.90
8340;DHT22;4207;49.314;7.162;2022-11-20T07:00:59;7.10;99.90
8340;DHT22;4207;49.314;7.162;2022-11-20T07:03:27;7.00;99.90
8340;DHT22;4207;49.314;7.162;2022-11-20T07:05:55;7.10;99.90
8340;DHT22;4207;49.314;7.162;2022-11-20T07:08:25;7.10;99.90
8340;DHT22;4207;49.314;7.162;2022-11-20T07:10:56;7.10;99.90
8340;DHT22;4207;49.314;7.162;2022-11-20T07:13:25;7.20;99.90
8340;DHT22;4207;49.314;7.162;2022-11-20T07:15:53;7.20;99.90
8340;DHT22;4207;49.314;7.162;2022-11-20T07:18:22;7.20;99.90
8340;DHT22;4207;49.314;7.162;2022-11-20T07:20:50;7.20;99.90
8340;DHT22;4207;49.314;7.162;2022-11-20T07:23:18;7.30;99.90
8340;DHT22;4207;49.314;7.162;2022-11-20T07:25:46;7.30;99.90
8340;DHT22;4207;49.314;7.162;2022-11-20T07:28:14;7.30;99.90
8340;DHT22;4207;49.314;7.162;2022-11-20T07:30:42;7.30;99.90
8340;DHT22;4207;49.314;7.162;2022-11-20T07:33:10;7.30;99.90
8340;DHT22;4207;49.314;7.162;2022-11-20T07:35:39;7.30;99.90
8340;DHT22;4207;49.314;7.162;2022-11-20T07:38:07;7.40;99.90
8340;DHT22;4207;49.314;7.162;2022-11-20T07:40:35;7.40;99.90
8340;DHT22;4207;49.314;7.162;2022-11-20T07:43:03;7.40;99.90
8340;DHT22;4207;49.314;7.162;2022-11-20T07:45:31;7.40;99.90
8340;DHT22;4207;49.314;7.162;2022-11-20T07:47:59;7.40;99.90
8340;DHT22;4207;49.314;7.162;2022-11-20T07:50:27;7.50;99.90
8340;DHT22;4207;49.314;7.162;2022-11-20T07:53:02;7.50;99.90
8340;DHT22;4207;49.314;7.162;2022-11-20T07:55:30;7.50;99.90
8340;DHT22;4207;49.314;7.162;2022-11-20T07:57:59;7.50;99.90
8340;DHT22;4207;49.314;7.162;2022-11-20T08:00:27;7.50;99.90
8340;DHT22;4207;49.314;7.162;2022-11-20T08:02:55;7.50;99.90
8340;DHT22;4207;49.314;7.162;2022-11-20T08:05:23;7.50;99.90
8340;DHT22;4207;49.314;7.162;2022-11-20T08:07:51;7.50;99.90
8340;DHT22;4207;49.314;7.162;2022-11-20T08:10:21;7.40;99.90
8340;DHT22;4207;49.314;7.162;2022-11-20T08:12:50;7.40;99.90
8340;DHT22;4207;49.314;7.162;2022-11-20T08:15:36;7.40;99.90
8340;DHT22;4207;49.314;7.162;2022-11-20T08:18:06;7.40;99.90
8340;DHT22;4207;49.314;7.162;2022-11-20T08:20:54;7.40;99.90
8340;DHT22;4207;49.314;7.162;2022-11-20T08:23:22;7.40;99.90
8340;DHT22;4207;49.314;7.162;2022-11-20T08:25:52;7.40;99.90
8340;DHT22;4207;49.314;7.162;2022-11-20T08:28:20;7.40;99.90
8340;DHT22;4207;49.314;7.162;2022-11-20T08:30:48;7.40;99.90
8340;DHT22;4207;49.314;7.162;2022-11-20T08:33:17;7.40;99.90
8340;DHT22;4207;49.314;7.162;2022-11-20T08:35:45;7.40;99.90
8340;DHT22;4207;49.314;7.162;2022-11-20T08:38:13;7.40;99.90
8340;DHT22;4207;49.314;7.162;2022-11-20T08:40:41;7.40;99.90
8340;DHT22;4207;49.314;7.162;2022-11-20T08:43:32;7.40;99.90
8340;DHT22;4207;49.314;7.162;2022-11-20T08:46:00;7.50;99.90
8340;DHT22;4207;49.314;7.162;2022-11-20T08:48:28;7.50;99.90
8340;DHT22;4207;49.314;7.162;2022-11-20T08:50:58;7.40;99.90
8340;DHT22;4207;49.314;7.162;2022-11-20T08:53:26;7.40;99.90
8340;DHT22;4207;49.314;7.162;2022-11-20T08:55:54;7.40;99.90
8340;DHT22;4207;49.314;7.162;2022-11-20T08:58:22;7.50;99.90
8340;DHT22;4207;49.314;7.162;2022-11-20T09:00:54;7.50;99.90
8340;DHT22;4207;49.314;7.162;2022-11-20T09:03:22;7.50;99.90
8340;DHT22;4207;49.314;7.162;2022-11-20T09:05:57;7.50;99.90
8340;DHT22;4207;49.314;7.162;2022-11-20T09:08:27;7.60;99.90
8340;DHT22;4207;49.314;7.162;2022-11-20T09:10:56;7.70;99.90
8340;DHT22;4207;49.314;7.162;2022-11-20T09:13:26;7.70;99.90
8340;DHT22;4207;49.314;7.162;2022-11-20T09:15:56;7.80;99.90
8340;DHT22;4207;49.314;7.162;2022-11-20T09:18:25;7.80;99.90
8340;DHT22;4207;49.314;7.162;2022-11-20T09:20:56;7.90;99.90
8340;DHT22;4207;49.314;7.162;2022-11-20T09:23:25;7.90;99.90
8340;DHT22;4207;49.314;7.162;2022-11-20T09:25:53;7.90;99.90
8340;DHT22;4207;49.314;7.162;2022-11-20T09:28:26;7.80;99.90
8340;DHT22;4207;49.314;7.162;2022-11-20T09:30:55;7.90;99.90
8340;DHT22;4207;49.314;7.162;2022-11-20T09:33:23;7.90;99.90
8340;DHT22;4207;49.314;7.162;2022-11-20T09:35:51;7.90;99.90
8340;DHT22;4207;49.314;7.162;2022-11-20T09:38:19;7.90;99.90
8340;DHT22;4207;49.314;7.162;2022-11-20T09:40:53;7.90;99.90
8340;DHT22;4207;49.314;7.162;2022-11-20T09:43:32;7.80;99.90
8340;DHT22;4207;49.314;7.162;2022-11-20T09:46:17;7.90;99.90
8340;DHT22;4207;49.314;7.162;2022-11-20T09:49:03;8.00;99.90
8340;DHT22;4207;49.314;7.162;2022-11-20T09:51:39;8.20;99.90
8340;DHT22;4207;49.314;7.162;2022-11-20T09:54:16;8.30;99.90
8340;DHT22;4207;49.314;7.162;2022-11-20T09:56:49;8.40;99.90
8340;DHT22;4207;49.314;7.162;2022-11-20T09:59:27;8.60;99.90
8340;DHT22;4207;49.314;7.162;2022-11-20T10:01:59;8.70;99.90
8340;DHT22;4207;49.314;7.162;2022-11-20T10:04:30;8.80;99.90
8340;DHT22;4207;49.314;7.162;2022-11-20T10:07:08;8.90;99.90
8340;DHT22;4207;49.314;7.162;2022-11-20T10:09:59;8.90;99.90
8340;DHT22;4207;49.314;7.162;2022-11-20T10:12:36;8.90;99.90
8340;DHT22;4207;49.314;7.162;2022-11-20T10:15:19;8.90;99.90
8340;DHT22;4207;49.314;7.162;2022-11-20T10:18:04;8.90;99.90
8340;DHT22;4207;49.314;7.162;2022-11-20T10:20:41;8.90;99.90
8340;DHT22;4207;49.314;7.162;2022-11-20T10:23:43;8.80;99.90
8340;DHT22;4207;49.314;7.162;2022-11-20T10:26:19;8.60;99.90
8340;DHT22;4207;49.314;7.162;2022-11-20T10:29:00;8.50;99.90
8340;DHT22;4207;49.314;7.162;2022-11-20T10:31:36;8.40;99.90
8340;DHT22;4207;49.314;7.162;2022-11-20T10:34:12;8.40;99.90
8340;DHT22;4207;49.314;7.162;2022-11-20T10:36:52;8.50;99.90
8340;DHT22;4207;49.314;7.162;2022-11-20T10:39:27;8.60;99.90
8340;DHT22;4207;49.314;7.162;2022-11-20T10:41:57;8.70;99.90
8340;DHT22;4207;49.314;7.162;2022-11-20T10:44:27;8.80;99.90
8340;DHT22;4207;49.314;7.162;2022-11-20T10:47:14;8.80;99.90
8340;DHT22;4207;49.314;7.162;2022-11-20T10:49:48;8.70;99.90
8340;DHT22;4207;49.314;7.162;2022-11-20T10:52:22;8.70;99.90
8340;DHT22;4207;49.314;7.162;2022-11-20T10:54:58;8.80;99.90
8340;DHT22;4207;49.314;7.162;2022-11-20T10:57:39;9.00;99.90
8340;DHT22;4207;49.314;7.162;2022-11-20T11:00:14;9.10;99.90
8340;DHT22;4207;49.314;7.162;2022-11-20T11:02:47;9.30;99.90
8340;DHT22;4207;49.314;7.162;2022-11-20T11:05:24;9.30;99.90
8340;DHT22;4207;49.314;7.162;2022-11-20T11:07:57;9.30;99.90
8340;DHT22;4207;49.314;7.162;2022-11-20T11:10:33;9.20;99.90
8340;DHT22;4207;49.314;7.162;2022-11-20T11:13:04;9.20;99.90
8340;DHT22;4207;49.314;7.162;2022-11-20T11:15:38;9.20;99.90
8340;DHT22;4207;49.314;7.162;2022-11-20T11:18:08;9.10;99.90
8340;DHT22;4207;49.314;7.162;2022-11-20T11:20:38;9.10;99.90
8340;DHT22;4207;49.314;7.162;2022-11-20T11:23:27;9.10;99.90
8340;DHT22;4207;49.314;7.162;2022-11-20T11:25:57;9.10;99.90
8340;DHT22;4207;49.314;7.162;2022-11-20T11:28:26;9.20;99.90
8340;DHT22;4207;49.314;7.162;2022-11-20T11:30:55;9.40;99.90
8340;DHT22;4207;49.314;7.162;2022-11-20T11:33:24;9.60;99.90
8340;DHT22;4207;49.314;7.162;2022-11-20T11:35:56;9.70;99.90
8340;DHT22;4207;49.314;7.162;2022-11-20T11:38:29;9.80;99.90
8340;DHT22;4207;49.314;7.162;2022-11-20T11:40:58;9.90;99.90
8340;DHT22;4207;49.314;7.162;2022-11-20T11:43:29;9.90;99.90
8340;DHT22;4207;49.314;7.162;2022-11-20T11:46:29;9.90;99.90
8340;DHT22;4207;49.314;7.162;2022-11-20T11:48:59;9.90;99.90
8340;DHT22;4207;49.314;7.162;2022-11-20T11:51:34;9.80;99.90
8340;DHT22;4207;49.314;7.162;2022-11-20T11:54:14;9.80;99.90
8340;DHT22;4207;49.314;7.162;2022-11-20T11:56:43;9.90;99.90
8340;DHT22;4207;49.314;7.162;2022-11-20T11:59:18;9.90;99.90
8340;DHT22;4207;49.314;7.162;2022-11-20T12:01:54;9.80;99.90
8340;DHT22;4207;49.314;7.162;2022-11-20T12:04:37;9.70;99.90
8340;DHT22;4207;49.314;7.162;2022-11-20T12:07:12;9.70;99.90
8340;DHT22;4207;49.314;7.162;2022-11-20T12:10:02;9.70;99.90
8340;DHT22;4207;49.314;7.162;2022-11-20T12:12:32;9.80;99.90
8340;DHT22;4207;49.314;7.162;2022-11-20T12:15:06;9.90;99.90
8340;DHT22;4207;49.314;7.162;2022-11-20T12:17:35;9.90;99.90
8340;DHT22;4207;49.314;7.162;2022-11-20T12:20:10;9.90;99.90
8340;DHT22;4207;49.314;7.162;2022-11-20T12:22:45;9.80;99.90
8340;DHT22;4207;49.314;7.162;2022-11-20T12:25:20;9.80;99.90
8340;DHT22;4207;49.314;7.162;2022-11-20T12:30:52;9.60;99.90
8340;DHT22;4207;49.314;7.162;2022-11-20T12:33:41;9.40;99.90
8340;DHT22;4207;49.314;7.162;2022-11-20T12:36:19;9.30;99.90
8340;DHT22;4207;49.314;7.162;2022-11-20T12:39:03;9.30;99.90
8340;DHT22;4207;49.314;7.162;2022-11-20T12:41:46;9.30;99.90
8340;DHT22;4207;49.314;7.162;2022-11-20T12:47:50;9.30;99.90
8340;DHT22;4207;49.314;7.162;2022-11-20T12:50:27;9.30;99.90
8340;DHT22;4207;49.314;7.162;2022-11-20T12:53:02;9.20;99.90
8340;DHT22;4207;49.314;7.162;2022-11-20T12:55:47;9.20;99.90
8340;DHT22;4207;49.314;7.162;2022-11-20T12:58:23;9.20;99.90
8340;DHT22;4207;49.314;7.162;2022-11-20T13:00:58;9.10;99.90
8340;DHT22;4207;49.314;7.162;2022-11-20T13:03:39;9.10;99.90
8340;DHT22;4207;49.314;7.162;2022-11-20T13:06:13;9.10;99.90
8340;DHT22;4207;49.314;7.162;2022-11-20T13:08:47;9.20;99.90
8340;DHT22;4207;49.314;7.162;2022-11-20T13:11:21;9.10;99.90
8340;DHT22;4207;49.314;7.162;2022-11-20T13:14:04;9.10;99.90
8340;DHT22;4207;49.314;7.162;2022-11-20T13:16:40;9.10;99.90
8340;DHT22;4207;49.314;7.162;2022-11-20T13:19:12;9.10;99.90
8340;DHT22;4207;49.314;7.162;2022-11-20T13:21:42;9.00;99.90
8340;DHT22;4207;49.314;7.162;2022-11-20T13:24:25;9.00;99.90
8340;DHT22;4207;49.314;7.162;2022-11-20T13:27:04;9.00;99.90
8340;DHT22;4207;49.314;7.162;2022-11-20T13:29:32;9.00;99.90
8340;DHT22;4207;49.314;7.162;2022-11-20T13:32:04;9.00;99.90
8340;DHT22;4207;49.314;7.162;2022-11-20T13:34:34;9.10;99.90
8340;DHT22;4207;49.314;7.162;2022-11-20T13:37:03;9.00;99.90
8340;DHT22;4207;49.314;7.162;2022-11-20T13:39:33;9.10;99.90
8340;DHT22;4207;49.314;7.162;2022-11-20T13:42:20;9.10;99.90
8340;DHT22;4207;49.314;7.162;2022-11-20T13:44:53;9.10;99.90
8340;DHT22;4207;49.314;7.162;2022-11-20T13:47:23;9.10;99.90
8340;DHT22;4207;49.314;7.162;2022-11-20T13:49:52;9.10;99.90
8340;DHT22;4207;49.314;7.162;2022-11-20T13:52:37;9.00;99.90
8340;DHT22;4207;49.314;7.162;2022-11-20T13:55:19;9.00;99.90
8340;DHT22;4207;49.314;7.162;2022-11-20T13:58:19;9.00;99.90
8340;DHT22;4207;49.314;7.162;2022-11-20T14:00:57;9.00;99.90
8340;DHT22;4207;49.314;7.162;2022-11-20T14:03:29;8.90;99.90
8340;DHT22;4207;49.314;7.162;2022-11-20T14:06:25;8.90;99.90
8340;DHT22;4207;49.314;7.162;2022-11-20T14:08:54;8.90;99.90
8340;DHT22;4207;49.314;7.162;2022-11-20T14:11:23;8.80;99.90
8340;DHT22;4207;49.314;7.162;2022-11-20T14:13:58;8.80;99.90
8340;DHT22;4207;49.314;7.162;2022-11-20T14:16:28;8.70;99.90
8340;DHT22;4207;49.314;7.162;2022-11-20T14:18:58;8.70;99.90
8340;DHT22;4207;49.314;7.162;2022-11-20T14:21:44;8.70;99.90
8340;DHT22;4207;49.314;7.162;2022-11-20T14:24:13;8.70;99.90
8340;DHT22;4207;49.314;7.162;2022-11-20T14:26:42;8.70;99.90
8340;DHT22;4207;49.314;7.162;2022-11-20T14:29:13;8.70;99.90
8340;DHT22;4207;49.314;7.162;2022-11-20T14:31:42;8.60;99.90
8340;DHT22;4207;49.314;7.162;2022-11-20T14:34:18;8.60;99.90
8340;DHT22;4207;49.314;7.162;2022-11-20T14:36:48;8.60;99.90
8340;DHT22;4207;49.314;7.162;2022-11-20T14:39:20;8.60;99.90
8340;DHT22;4207;49.314;7.162;2022-11-20T14:41:51;8.50;99.90
8340;DHT22;4207;49.314;7.162;2022-11-20T14:44:25;8.50;99.90
8340;DHT22;4207;49.314;7.162;2022-11-20T14:46:55;8.50;99.90
8340;DHT22;4207;49.314;7.162;2022-11-20T14:49:25;8.40;99.90
8340;DHT22;4207;49.314;7.162;2022-11-20T14:51:59;8.40;99.90
8340;DHT22;4207;49.314;7.162;2022-11-20T14:54:27;8.40;99.90
8340;DHT22;4207;49.314;7.162;2022-11-20T14:56:59;8.40;99.90
8340;DHT22;4207;49.314;7.162;2022-11-20T14:59:30;8.40;99.90
8340;DHT22;4207;49.314;7.162;2022-11-20T15:02:01;8.40;99.90
8340;DHT22;4207;49.314;7.162;2022-11-20T15:04:29;8.40;99.90
8340;DHT22;4207;49.314;7.162;2022-11-20T15:06:59;8.40;99.90
8340;DHT22;4207;49.314;7.162;2022-11-20T15:09:27;8.30;99.90
8340;DHT22;4207;49.314;7.162;2022-11-20T15:11:57;8.30;99.90
8340;DHT22;4207;49.314;7.162;2022-11-20T15:14:29;8.30;99.90
8340;DHT22;4207;49.314;7.162;2022-11-20T15:16:57;8.30;99.90
8340;DHT22;4207;49.314;7.162;2022-11-20T15:19:26;8.20;99.90
8340;DHT22;4207;49.314;7.162;2022-11-20T15:21:54;8.10;99.90
8340;DHT22;4207;49.314;7.162;2022-11-20T15:24:22;8.00;99.90
8340;DHT22;4207;49.314;7.162;2022-11-20T15:26:51;8.00;99.90
8340;DHT22;4207;49.314;7.162;2022-11-20T15:29:20;8.00;99.90
8340;DHT22;4207;49.314;7.162;2022-11-20T15:31:51;7.90;99.90
8340;DHT22;4207;49.314;7.162;2022-11-20T15:34:20;7.90;99.90
8340;DHT22;4207;49.314;7.162;2022-11-20T15:36:49;7.90;99.90
8340;DHT22;4207;49.314;7.162;2022-11-20T15:39:17;7.80;99.90
8340;DHT22;4207;49.314;7.162;2022-11-20T15:41:45;7.80;99.90
8340;DHT22;4207;49.314;7.162;2022-11-20T15:44:13;7.90;99.90
8340;DHT22;4207;49.314;7.162;2022-11-20T15:46:42;7.80;99.90
8340;DHT22;4207;49.314;7.162;2022-11-20T15:49:15;7.80;99.90
8340;DHT22;4207;49.314;7.162;2022-11-20T15:51:48;7.80;99.90
8340;DHT22;4207;49.314;7.162;2022-11-20T15:54:18;7.80;99.90
8340;DHT22;4207;49.314;7.162;2022-11-20T15:56:49;7.70;99.90
8340;DHT22;4207;49.314;7.162;2022-11-20T15:59:18;7.60;99.90
8340;DHT22;4207;49.314;7.162;2022-11-20T16:01:46;7.60;99.90
8340;DHT22;4207;49.314;7.162;2022-11-20T16:04:16;7.50;99.90
8340;DHT22;4207;49.314;7.162;2022-11-20T16:06:45;7.40;99.90
8340;DHT22;4207;49.314;7.162;2022-11-20T16:09:13;7.30;99.90
8340;DHT22;4207;49.314;7.162;2022-11-20T16:11:41;7.20;99.90
8340;DHT22;4207;49.314;7.162;2022-11-20T16:14:10;7.20;99.90
8340;DHT22;4207;49.314;7.162;2022-11-20T16:16:55;7.20;99.90
8340;DHT22;4207;49.314;7.162;2022-11-20T16:19:25;7.10;99.90
8340;DHT22;4207;49.314;7.162;2022-11-20T16:21:53;7.10;99.90
8340;DHT22;4207;49.314;7.162;2022-11-20T16:24:28;7.10;99.90
8340;DHT22;4207;49.314;7.162;2022-11-20T16:26:56;7.00;99.90
8340;DHT22;4207;49.314;7.162;2022-11-20T16:29:25;7.00;99.90
8340;DHT22;4207;49.314;7.162;2022-11-20T16:31:53;7.00;99.90
8340;DHT22;4207;49.314;7.162;2022-11-20T16:34:21;7.00;99.90
8340;DHT22;4207;49.314;7.162;2022-11-20T16:36:50;6.90;99.90
8340;DHT22;4207;49.314;7.162;2022-11-20T16:39:18;6.90;99.90
8340;DHT22;4207;49.314;7.162;2022-11-20T16:41:49;6.80;99.90
8340;DHT22;4207;49.314;7.162;2022-11-20T16:44:18;6.80;99.90
8340;DHT22;4207;49.314;7.162;2022-11-20T16:46:46;6.90;99.90
8340;DHT22;4207;49.314;7.162;2022-11-20T16:49:14;6.80;99.90
8340;DHT22;4207;49.314;7.162;2022-11-20T16:51:42;6.80;99.90